Flight Briefing for CMB862

Departure Arrival
KeflavĂ­k International Airport (BIKF)
Click to view FAA NOTAMS
Norfolk Naval Station (Chambers Field) (KNGU)
Click to view FAA NOTAMS
Departure Time Arrival Time
N/A N/A
Aircraft Distance
B757-200SF 2503nm
Departure METAR Arrival METAR
BIKF 221200Z 30020KT 9999 FEW022 OVC130 02/M02 Q0977 R88/CLRD// KNGU 221159Z 27013G20KT 10SM FEW065 09/03 A2966 RMK AO2 SLP045 70006 T00890033 10094 20083 53013
Suggested Route
RALOV1D RALOV RAKIS 6235N N6040 5944N 5650N YAY J580 YQY YQI J585 ACK J62 RIFLE J174 SWL RAPTR


View recent IFR Routes data
Notes
USTRANSCOM CONTRACT FLIGHT

Charts and Procedures

Charts for BIKF
No chart available
Charts for KNGU
No chart available

Windy.com Weather Map